createdAt,value
2022-09-29T00:02:08.697Z,10.80
2022-09-29T00:04:40.638Z,5.70
2022-09-29T00:07:12.476Z,8.50
2022-09-29T00:09:44.300Z,7.40
2022-09-29T00:12:16.110Z,5.60
2022-09-29T00:14:48.122Z,5.70
2022-09-29T00:17:20.108Z,5.10
2022-09-29T00:19:51.982Z,4.80
2022-09-29T00:22:23.915Z,5.10
2022-09-29T00:24:55.757Z,5.10
2022-09-29T00:27:27.860Z,5.30
2022-09-29T00:29:59.731Z,4.80
2022-09-29T00:32:31.545Z,5.50
2022-09-29T00:35:03.390Z,4.90
2022-09-29T00:37:35.227Z,4.60
2022-09-29T00:40:08.431Z,6.00
2022-09-29T00:42:40.843Z,6.60
2022-09-29T00:45:25.362Z,8.80
2022-09-29T00:48:07.068Z,11.60
2022-09-29T00:50:46.173Z,7.30
2022-09-29T00:53:21.736Z,6.10
2022-09-29T00:55:58.440Z,6.40
2022-09-29T00:58:35.597Z,5.60
2022-09-29T01:01:08.311Z,5.30
2022-09-29T01:03:47.410Z,5.70
2022-09-29T01:06:23.072Z,5.60
2022-09-29T01:08:59.885Z,6.30
2022-09-29T01:11:33.181Z,7.00
2022-09-29T01:14:07.900Z,7.40
2022-09-29T01:16:42.303Z,6.30
2022-09-29T01:19:20.280Z,6.20
2022-09-29T01:22:04.071Z,6.20
2022-09-29T01:25:07.738Z,6.30
2022-09-29T01:28:07.829Z,6.20
2022-09-29T01:30:56.345Z,6.50
2022-09-29T01:33:38.162Z,7.00
2022-09-29T01:36:19.806Z,7.40
2022-09-29T01:39:01.999Z,8.20
2022-09-29T01:41:42.651Z,8.40
2022-09-29T01:44:21.937Z,8.40
2022-09-29T01:46:58.431Z,9.40
2022-09-29T01:49:35.487Z,9.60
2022-09-29T01:52:12.928Z,10.10
2022-09-29T01:54:48.931Z,24.30
2022-09-29T01:57:28.586Z,12.40
2022-09-29T02:00:08.719Z,10.20
2022-09-29T02:02:49.160Z,10.90
2022-09-29T02:05:25.637Z,18.50
2022-09-29T02:08:02.518Z,13.10
2022-09-29T02:10:39.200Z,13.30
2022-09-29T02:13:13.580Z,12.90
2022-09-29T02:15:49.440Z,12.80
2022-09-29T02:18:27.239Z,28.20
2022-09-29T02:20:59.076Z,14.90
2022-09-29T02:23:31.090Z,17.60
2022-09-29T02:26:04.016Z,12.60
2022-09-29T02:28:36.076Z,17.40
2022-09-29T02:31:08.913Z,13.80
2022-09-29T02:33:40.792Z,17.50
2022-09-29T02:36:26.123Z,20.40
2022-09-29T02:39:09.779Z,17.90
2022-09-29T02:41:53.182Z,19.40
2022-09-29T02:44:42.466Z,14.90
2022-09-29T02:47:47.433Z,17.10
2022-09-29T02:50:43.913Z,11.80
2022-09-29T02:53:29.113Z,11.70
2022-09-29T03:01:10.378Z,13.70
2022-09-29T03:03:42.262Z,13.00
2022-09-29T03:06:15.950Z,9.10
2022-09-29T03:08:47.749Z,8.00
2022-09-29T03:11:19.560Z,7.10
2022-09-29T03:13:51.388Z,6.70
2022-09-29T03:16:23.257Z,4.70
2022-09-29T03:18:55.471Z,3.50
2022-09-29T03:21:27.284Z,3.00
2022-09-29T03:23:59.312Z,2.80
2022-09-29T03:26:31.282Z,3.00
2022-09-29T03:29:03.379Z,3.50
2022-09-29T03:31:35.245Z,2.90
2022-09-29T03:34:07.242Z,3.50
2022-09-29T03:36:39.119Z,3.40
2022-09-29T03:39:11.093Z,3.40
2022-09-29T03:41:42.911Z,3.70
2022-09-29T03:44:14.892Z,3.90
2022-09-29T03:46:47.371Z,6.00
2022-09-29T03:49:19.565Z,6.60
2022-09-29T03:51:52.773Z,7.20
2022-09-29T03:54:27.381Z,7.60
2022-09-29T03:56:59.221Z,7.70
2022-09-29T03:59:31.087Z,11.30
2022-09-29T04:02:03.093Z,8.30
2022-09-29T04:04:35.165Z,9.10
2022-09-29T04:07:07.057Z,10.10
2022-09-29T04:09:39.350Z,12.60
2022-09-29T04:12:11.368Z,13.00
2022-09-29T04:14:43.402Z,13.10
2022-09-29T04:17:15.315Z,10.30
2022-09-29T04:19:47.159Z,11.40
2022-09-29T04:22:19.516Z,11.20
2022-09-29T04:24:52.252Z,9.90
2022-09-29T04:27:24.392Z,9.20
2022-09-29T04:29:56.245Z,9.50
2022-09-29T04:32:28.101Z,9.60
2022-09-29T04:34:59.963Z,9.90
2022-09-29T04:37:32.185Z,11.40
2022-09-29T04:40:05.205Z,8.80
2022-09-29T04:42:37.456Z,9.10
2022-09-29T04:45:10.814Z,9.90
2022-09-29T04:47:42.736Z,9.40
2022-09-29T04:50:14.722Z,10.50
2022-09-29T04:52:47.053Z,11.20
2022-09-29T04:55:19.528Z,25.90
2022-09-29T04:57:51.594Z,16.00
2022-09-29T05:00:23.585Z,24.60
2022-09-29T05:02:55.609Z,17.20
2022-09-29T05:05:27.582Z,12.90
2022-09-29T05:07:59.986Z,11.80
2022-09-29T05:10:31.978Z,39.50
2022-09-29T05:13:03.925Z,15.60
2022-09-29T05:15:36.012Z,10.60
2022-09-29T05:18:09.086Z,107.80
2022-09-29T05:20:50.599Z,82.20
2022-09-29T05:23:26.815Z,71.50
2022-09-29T05:26:01.719Z,93.70
2022-09-29T05:28:34.144Z,79.80
2022-09-29T05:31:07.449Z,90.60
2022-09-29T05:33:40.059Z,29.40
2022-09-29T05:36:13.722Z,22.30
2022-09-29T05:38:45.599Z,13.00
2022-09-29T05:41:22.705Z,17.60
2022-09-29T05:43:55.648Z,17.10
2022-09-29T05:46:27.506Z,15.30
2022-09-29T05:48:59.546Z,16.50
2022-09-29T05:51:31.392Z,18.40
2022-09-29T05:54:03.746Z,20.30
2022-09-29T05:56:35.691Z,17.60
2022-09-29T05:59:07.796Z,14.30
2022-09-29T06:01:39.789Z,18.30
2022-09-29T06:04:11.825Z,25.80
2022-09-29T06:06:43.717Z,31.60
2022-09-29T06:09:15.902Z,17.10
2022-09-29T06:11:47.707Z,16.80
2022-09-29T06:14:19.829Z,18.00
2022-09-29T06:16:51.918Z,19.50
2022-09-29T06:19:23.859Z,20.40
2022-09-29T06:21:55.719Z,15.00
2022-09-29T06:24:27.636Z,18.00
2022-09-29T06:26:59.539Z,27.30
2022-09-29T06:29:31.355Z,18.10
2022-09-29T06:32:03.728Z,20.00
2022-09-29T06:34:35.622Z,21.80
2022-09-29T06:37:25.132Z,17.00
2022-09-29T06:39:56.955Z,23.20
2022-09-29T06:42:29.288Z,16.80
2022-09-29T06:45:02.349Z,20.10
2022-09-29T06:47:34.170Z,17.60
2022-09-29T06:50:07.142Z,22.00
2022-09-29T06:52:38.992Z,16.40
2022-09-29T06:55:11.422Z,15.90
2022-09-29T06:57:45.843Z,17.90
2022-09-29T07:00:17.883Z,17.60
2022-09-29T07:02:49.942Z,18.90
2022-09-29T07:05:21.767Z,18.20
2022-09-29T07:07:57.545Z,16.40
2022-09-29T07:10:32.091Z,15.60
2022-09-29T07:13:03.931Z,16.40
2022-09-29T07:15:36.269Z,15.50
2022-09-29T07:18:08.769Z,17.20
2022-09-29T07:20:40.840Z,17.00
2022-09-29T07:23:12.769Z,15.50
2022-09-29T07:25:51.951Z,16.10
2022-09-29T07:28:25.597Z,16.50
2022-09-29T07:31:14.487Z,16.40
2022-09-29T07:33:48.753Z,17.30
2022-09-29T07:36:21.966Z,16.00
2022-09-29T07:38:54.342Z,15.50
2022-09-29T07:41:26.327Z,16.30
2022-09-29T07:43:58.380Z,16.50
2022-09-29T07:46:30.370Z,16.40
2022-09-29T07:49:02.382Z,17.50
2022-09-29T07:51:34.404Z,20.90
2022-09-29T07:54:07.155Z,19.90
2022-09-29T07:56:39.073Z,20.70
2022-09-29T07:59:12.973Z,18.50
2022-09-29T08:01:44.829Z,19.50
2022-09-29T08:04:17.003Z,19.40
2022-09-29T08:06:48.970Z,18.10
2022-09-29T08:09:24.381Z,17.20
2022-09-29T08:12:08.122Z,17.30
2022-09-29T08:14:44.053Z,18.00
2022-09-29T08:17:16.208Z,17.90
2022-09-29T08:19:48.054Z,17.40
2022-09-29T08:22:19.908Z,18.10
2022-09-29T08:24:51.775Z,19.20
2022-09-29T08:27:23.598Z,17.80
2022-09-29T08:29:55.866Z,22.90
2022-09-29T08:32:27.657Z,20.00
2022-09-29T08:34:59.472Z,18.70
2022-09-29T08:37:34.924Z,17.80
2022-09-29T08:40:08.764Z,16.60
2022-09-29T08:42:53.094Z,18.00
2022-09-29T08:45:31.795Z,18.80
2022-09-29T08:48:19.849Z,16.90
2022-09-29T08:50:59.480Z,17.00
2022-09-29T08:53:35.274Z,16.70
2022-09-29T08:56:15.119Z,19.30
2022-09-29T08:58:47.179Z,18.70
2022-09-29T09:01:30.969Z,20.70
2022-09-29T09:04:30.064Z,20.00
2022-09-29T09:07:12.049Z,20.80
2022-09-29T09:09:58.601Z,20.50
2022-09-29T09:12:47.667Z,19.30
2022-09-29T09:15:32.481Z,20.20
2022-09-29T09:18:22.611Z,19.20
2022-09-29T09:21:00.976Z,18.60
2022-09-29T09:23:48.448Z,18.10
2022-09-29T09:26:22.074Z,17.50
2022-09-29T09:29:00.163Z,25.90
2022-09-29T09:31:37.231Z,19.80
2022-09-29T09:34:15.386Z,19.00
2022-09-29T09:37:03.773Z,19.90
2022-09-29T09:39:45.849Z,18.80
2022-09-29T09:42:22.709Z,17.90
2022-09-29T09:44:59.418Z,18.70
2022-09-29T09:47:34.473Z,18.20
2022-09-29T09:50:15.447Z,17.70
2022-09-29T09:52:50.309Z,16.40
2022-09-29T09:58:11.441Z,15.10
2022-09-29T10:00:47.535Z,16.10
2022-09-29T10:03:19.609Z,13.90
2022-09-29T10:05:51.923Z,15.10
2022-09-29T10:08:27.843Z,16.80
2022-09-29T10:11:01.149Z,17.70
2022-09-29T10:13:34.073Z,16.10
2022-09-29T10:16:13.749Z,20.10
2022-09-29T10:18:48.757Z,17.30
2022-09-29T10:21:36.257Z,17.10
2022-09-29T10:24:21.907Z,14.60
2022-09-29T10:26:57.736Z,17.00
2022-09-29T10:29:34.661Z,16.50
2022-09-29T10:32:10.159Z,14.50
2022-09-29T10:34:45.629Z,25.40
2022-09-29T10:37:28.867Z,16.50
2022-09-29T10:40:16.526Z,20.50
2022-09-29T10:42:50.369Z,14.20
2022-09-29T10:45:23.992Z,13.70
2022-09-29T10:50:55.578Z,13.00
2022-09-29T10:53:34.836Z,13.40
2022-09-29T10:56:17.498Z,12.10
2022-09-29T10:59:02.933Z,12.40
2022-09-29T11:01:47.973Z,12.10
2022-09-29T11:04:23.992Z,10.90
2022-09-29T11:06:56.993Z,18.20
2022-09-29T11:09:37.690Z,15.90
2022-09-29T11:12:30.312Z,14.90
2022-09-29T11:15:02.979Z,12.40
2022-09-29T11:17:41.257Z,11.70
2022-09-29T11:20:18.188Z,11.70
2022-09-29T11:23:19.878Z,11.80
2022-09-29T11:26:16.267Z,15.30
2022-09-29T11:29:04.406Z,13.90
2022-09-29T11:31:44.779Z,14.30
2022-09-29T11:34:41.246Z,25.80
2022-09-29T11:37:27.101Z,23.30
2022-09-29T11:40:11.309Z,17.50
2022-09-29T11:43:06.222Z,17.20
2022-09-29T11:45:46.467Z,14.70
2022-09-29T11:48:44.998Z,15.30
2022-09-29T11:51:25.652Z,14.50
2022-09-29T11:54:20.742Z,14.90
2022-09-29T11:56:56.714Z,17.30
2022-09-29T11:59:54.373Z,17.00
2022-09-29T12:02:53.041Z,16.50
2022-09-29T12:05:30.680Z,18.20
2022-09-29T12:08:13.606Z,19.00
2022-09-29T12:10:54.408Z,17.20
2022-09-29T12:13:34.692Z,17.30
2022-09-29T12:16:12.465Z,29.10
2022-09-29T12:18:50.191Z,15.20
2022-09-29T12:21:33.316Z,16.10
2022-09-29T12:24:12.143Z,14.70
2022-09-29T12:26:46.231Z,85.80
2022-09-29T12:29:32.330Z,19.30
2022-09-29T12:32:10.315Z,15.70
2022-09-29T12:34:47.970Z,15.60
2022-09-29T12:37:25.138Z,16.80
2022-09-29T12:40:04.347Z,14.70
2022-09-29T12:43:04.124Z,13.20
2022-09-29T12:45:48.507Z,17.10
2022-09-29T12:48:32.951Z,21.10
2022-09-29T12:51:10.854Z,17.30
2022-09-29T12:53:51.518Z,12.30
2022-09-29T12:56:29.620Z,11.00
2022-09-29T12:59:06.722Z,15.30
2022-09-29T13:01:39.620Z,20.30
2022-09-29T13:04:53.222Z,16.60
2022-09-29T13:07:46.451Z,12.80
2022-09-29T13:10:40.423Z,12.70
2022-09-29T13:13:31.944Z,13.40
2022-09-29T13:16:14.480Z,16.40
2022-09-29T13:19:29.652Z,16.80
2022-09-29T13:22:39.897Z,14.30
2022-09-29T13:25:24.010Z,13.80
2022-09-29T13:27:57.762Z,12.50
2022-09-29T13:30:32.192Z,14.70
2022-09-29T13:33:12.394Z,20.10
2022-09-29T13:35:48.799Z,19.10
2022-09-29T13:38:24.002Z,16.30
2022-09-29T13:41:18.774Z,14.30
2022-09-29T13:44:21.007Z,12.70
2022-09-29T13:46:54.697Z,14.00
2022-09-29T13:49:31.884Z,12.80
2022-09-29T13:52:26.094Z,13.50
2022-09-29T13:55:17.873Z,15.60
2022-09-29T13:57:54.713Z,44.70
2022-09-29T14:00:27.142Z,35.70
2022-09-29T14:03:24.758Z,34.50
2022-09-29T14:06:36.022Z,12.40
2022-09-29T14:09:08.229Z,12.60
2022-09-29T14:11:43.165Z,13.10
2022-09-29T14:14:24.625Z,11.70
2022-09-29T14:17:02.211Z,11.90
2022-09-29T14:19:49.948Z,14.00
2022-09-29T14:22:58.813Z,12.80
2022-09-29T14:25:57.434Z,11.60
2022-09-29T14:28:42.100Z,11.20
2022-09-29T14:31:24.733Z,10.60
2022-09-29T14:33:57.465Z,11.30
2022-09-29T14:36:34.200Z,12.60
2022-09-29T14:39:31.949Z,14.60
2022-09-29T14:41:59.769Z,12.20
2022-09-29T14:44:49.847Z,12.70
2022-09-29T14:47:56.719Z,12.40
2022-09-29T14:51:01.127Z,15.40
2022-09-29T14:53:58.357Z,12.60
2022-09-29T14:56:44.486Z,12.90
2022-09-29T14:59:29.172Z,13.10
2022-09-29T15:02:19.298Z,12.80
2022-09-29T15:04:51.653Z,11.90
2022-09-29T15:07:26.096Z,11.30
2022-09-29T15:12:31.854Z,11.10
2022-09-29T15:15:03.753Z,11.70
2022-09-29T15:17:48.116Z,11.50
2022-09-29T15:20:28.793Z,12.00
2022-09-29T15:23:30.547Z,11.70
2022-09-29T15:26:02.511Z,10.70
2022-09-29T15:28:38.876Z,13.80
2022-09-29T15:31:17.601Z,12.30
2022-09-29T15:33:50.324Z,10.90
2022-09-29T15:36:25.530Z,10.60
2022-09-29T15:39:02.711Z,11.90
2022-09-29T15:41:35.601Z,15.40
2022-09-29T15:44:18.638Z,25.60
2022-09-29T15:46:53.249Z,32.50
2022-09-29T15:49:26.257Z,34.20
2022-09-29T15:52:01.347Z,41.90
2022-09-29T15:57:53.126Z,30.80
2022-09-29T16:00:57.605Z,26.40
2022-09-29T16:03:41.138Z,32.90
2022-09-29T16:06:23.701Z,30.00
2022-09-29T16:08:59.638Z,50.70
2022-09-29T16:11:36.171Z,49.00
2022-09-29T16:14:12.212Z,49.20
2022-09-29T16:16:48.596Z,49.40
2022-09-29T16:19:26.409Z,46.60
2022-09-29T16:22:01.061Z,56.80
2022-09-29T16:24:35.768Z,73.90
2022-09-29T16:29:46.968Z,133.50
2022-09-29T16:32:42.533Z,116.30
2022-09-29T16:35:50.822Z,193.80
2022-09-29T16:38:36.158Z,203.20
2022-09-29T16:41:15.558Z,76.40
2022-09-29T16:43:49.099Z,42.70
2022-09-29T16:46:23.726Z,49.30
2022-09-29T16:48:55.627Z,58.20
2022-09-29T16:51:38.548Z,62.50
2022-09-29T16:54:20.563Z,69.90
2022-09-29T16:57:18.220Z,62.20
2022-09-29T16:59:52.997Z,62.80
2022-09-29T17:04:57.263Z,72.60
2022-09-29T17:07:29.913Z,95.60
2022-09-29T17:10:02.804Z,95.80
2022-09-29T17:12:34.631Z,100.70
2022-09-29T17:15:07.482Z,107.00
2022-09-29T17:17:42.305Z,119.20
2022-09-29T17:20:17.971Z,92.00
2022-09-29T17:22:51.728Z,101.70
2022-09-29T17:25:24.089Z,89.80
2022-09-29T17:28:15.291Z,112.80
2022-09-29T17:30:49.028Z,89.40
2022-09-29T17:33:21.958Z,88.20
2022-09-29T17:35:56.087Z,86.10
2022-09-29T17:38:28.647Z,75.00
2022-09-29T17:41:03.765Z,76.00
2022-09-29T17:43:35.725Z,75.60
2022-09-29T17:46:12.101Z,84.70
2022-09-29T17:48:44.062Z,84.50
2022-09-29T17:51:18.300Z,92.90
2022-09-29T17:53:50.181Z,94.50
2022-09-29T17:56:26.924Z,103.50
2022-09-29T17:59:03.146Z,114.30
2022-09-29T18:01:36.393Z,120.60
2022-09-29T18:04:09.316Z,119.70
2022-09-29T18:06:42.466Z,129.50
2022-09-29T18:09:19.176Z,125.50
2022-09-29T18:11:51.100Z,129.20
2022-09-29T18:14:23.089Z,148.50
2022-09-29T18:16:55.640Z,133.90
2022-09-29T18:19:27.562Z,133.20
2022-09-29T18:22:00.442Z,127.90
2022-09-29T18:24:32.354Z,117.80
2022-09-29T18:27:04.263Z,123.30
2022-09-29T18:29:36.151Z,132.10
2022-09-29T18:32:08.275Z,139.00
2022-09-29T18:34:40.138Z,145.80
2022-09-29T18:37:11.959Z,131.30
2022-09-29T18:39:43.763Z,121.90
2022-09-29T18:42:16.231Z,96.30
2022-09-29T18:44:48.342Z,103.40
2022-09-29T18:47:20.185Z,98.70
2022-09-29T18:49:52.015Z,79.40
2022-09-29T18:52:23.843Z,73.10
2022-09-29T18:54:55.713Z,70.30
2022-09-29T18:57:27.537Z,69.70
2022-09-29T18:59:59.463Z,72.50
2022-09-29T19:02:31.486Z,86.70
2022-09-29T19:05:04.313Z,118.80
2022-09-29T19:07:36.371Z,138.60
2022-09-29T19:10:10.074Z,166.70
2022-09-29T19:12:45.593Z,171.10
2022-09-29T19:15:20.026Z,174.00
2022-09-29T19:17:56.874Z,171.90
2022-09-29T19:20:30.093Z,148.00
2022-09-29T19:23:03.000Z,133.30
2022-09-29T19:25:38.243Z,118.00
2022-09-29T19:28:10.139Z,107.40
2022-09-29T19:30:43.583Z,106.90
2022-09-29T19:33:21.058Z,104.50
2022-09-29T19:35:55.484Z,104.20
2022-09-29T19:38:27.365Z,91.00
2022-09-29T19:40:59.360Z,87.30
2022-09-29T19:43:31.402Z,82.10
2022-09-29T19:46:11.599Z,77.60
2022-09-29T19:48:44.492Z,77.10
2022-09-29T19:51:35.780Z,78.70
2022-09-29T19:54:14.270Z,79.30
2022-09-29T19:56:51.274Z,81.10
2022-09-29T19:59:26.707Z,75.40
2022-09-29T20:01:59.415Z,69.70
2022-09-29T20:04:35.555Z,63.30
2022-09-29T20:07:08.423Z,62.20
2022-09-29T20:09:40.344Z,61.30
2022-09-29T20:12:17.172Z,60.00
2022-09-29T20:14:51.824Z,58.60
2022-09-29T20:17:24.627Z,75.10
2022-09-29T20:19:56.490Z,75.40
2022-09-29T20:22:31.621Z,62.20
2022-09-29T20:25:04.087Z,64.50
2022-09-29T20:27:36.390Z,64.30
2022-09-29T20:30:10.517Z,55.30
2022-09-29T20:32:42.765Z,47.50
2022-09-29T20:35:14.886Z,36.10
2022-09-29T20:37:54.377Z,35.80
2022-09-29T20:40:26.373Z,42.40
2022-09-29T20:42:58.338Z,68.10
2022-09-29T20:45:30.197Z,99.40
2022-09-29T20:48:02.520Z,73.80
2022-09-29T20:50:34.891Z,59.30
2022-09-29T20:53:06.839Z,66.60
2022-09-29T20:55:38.827Z,144.20
2022-09-29T20:58:11.642Z,489.40
2022-09-29T21:00:43.766Z,264.90
2022-09-29T21:03:15.670Z,42.80
2022-09-29T21:05:47.800Z,34.20
2022-09-29T21:08:19.737Z,29.00
2022-09-29T21:10:58.817Z,35.30
2022-09-29T21:13:32.478Z,33.90
2022-09-29T21:16:04.910Z,29.70
2022-09-29T21:18:37.472Z,33.40
2022-09-29T21:21:10.544Z,29.70
2022-09-29T21:23:44.033Z,31.10
2022-09-29T21:26:18.859Z,33.90
2022-09-29T21:31:25.162Z,41.80
2022-09-29T21:33:59.590Z,52.10
2022-09-29T21:36:33.346Z,50.10
2022-09-29T21:39:08.677Z,45.00
2022-09-29T21:41:42.953Z,40.60
2022-09-29T21:44:16.895Z,37.80
2022-09-29T21:46:48.980Z,33.60
2022-09-29T21:49:21.748Z,31.80
2022-09-29T21:51:53.939Z,29.10
2022-09-29T21:54:26.731Z,29.90
2022-09-29T21:56:58.668Z,32.50
2022-09-29T21:59:30.586Z,33.70
2022-09-29T22:02:02.521Z,35.10
2022-09-29T22:04:34.420Z,34.60
2022-09-29T22:07:06.182Z,31.80
2022-09-29T22:09:38.024Z,32.10
2022-09-29T22:12:09.873Z,29.00
2022-09-29T22:14:44.867Z,32.20
2022-09-29T22:17:18.922Z,36.40
2022-09-29T22:19:50.742Z,37.10
2022-09-29T22:22:23.498Z,32.50
2022-09-29T22:24:55.782Z,29.60
2022-09-29T22:27:27.655Z,28.30
2022-09-29T22:29:59.539Z,28.70
2022-09-29T22:32:31.972Z,24.70
2022-09-29T22:35:04.001Z,23.70
2022-09-29T22:37:36.058Z,22.10
2022-09-29T22:40:10.990Z,19.60
2022-09-29T22:45:13.817Z,21.30
2022-09-29T22:47:45.698Z,22.10
2022-09-29T22:50:17.819Z,20.60
2022-09-29T22:52:49.813Z,19.30
2022-09-29T22:55:21.626Z,18.50
2022-09-29T22:57:53.723Z,19.60
2022-09-29T23:00:26.117Z,19.00
2022-09-29T23:02:57.936Z,19.00
2022-09-29T23:05:30.191Z,20.20
2022-09-29T23:08:02.265Z,23.70
2022-09-29T23:10:35.319Z,22.80
2022-09-29T23:13:07.135Z,25.90
2022-09-29T23:15:39.473Z,22.80
2022-09-29T23:18:11.339Z,21.30
2022-09-29T23:20:43.204Z,22.30
2022-09-29T23:23:15.157Z,41.00
2022-09-29T23:25:51.040Z,22.30
2022-09-29T23:28:22.909Z,21.70
2022-09-29T23:30:55.415Z,20.40
2022-09-29T23:33:27.852Z,21.50
2022-09-29T23:36:07.736Z,23.80
2022-09-29T23:38:58.298Z,23.00
2022-09-29T23:41:30.689Z,23.40
2022-09-29T23:44:06.133Z,25.90
2022-09-29T23:46:40.200Z,31.10
2022-09-29T23:49:13.648Z,30.60
2022-09-29T23:51:47.240Z,28.80
2022-09-29T23:54:21.907Z,28.70
2022-09-29T23:56:55.909Z,28.80
2022-09-29T23:59:28.128Z,28.40
